createdAt,value
2023-03-10T00:03:49.383Z,27.05
2023-03-10T00:06:21.315Z,30.83
2023-03-10T00:08:49.096Z,29.60
2023-03-10T00:11:16.589Z,30.58
2023-03-10T00:13:44.230Z,27.55
2023-03-10T00:16:27.106Z,31.27
2023-03-10T00:18:54.739Z,28.98
2023-03-10T00:21:26.280Z,28.10
2023-03-10T00:23:54.047Z,29.45
2023-03-10T00:26:23.117Z,29.08
2023-03-10T00:28:50.902Z,30.05
2023-03-10T00:31:23.081Z,34.78
2023-03-10T00:33:52.068Z,31.42
2023-03-10T00:36:25.847Z,29.48
2023-03-10T00:38:54.531Z,29.00
2023-03-10T00:41:25.069Z,31.63
2023-03-10T00:43:52.799Z,30.40
2023-03-10T00:46:20.163Z,31.85
2023-03-10T00:48:47.598Z,30.42
2023-03-10T00:51:15.275Z,27.88
2023-03-10T00:53:42.896Z,29.50
2023-03-10T00:56:25.688Z,27.40
2023-03-10T00:58:56.121Z,30.83
2023-03-10T01:01:27.482Z,31.45
2023-03-10T01:03:57.909Z,26.27
2023-03-10T01:06:26.091Z,29.02
2023-03-10T01:08:53.665Z,30.92
2023-03-10T01:11:25.436Z,27.27
2023-03-10T01:13:53.221Z,28.10
2023-03-10T01:16:20.296Z,26.08
2023-03-10T01:18:48.089Z,26.58
2023-03-10T01:21:25.017Z,27.17
2023-03-10T01:23:52.445Z,27.00
2023-03-10T01:26:19.723Z,24.90
2023-03-10T01:28:48.981Z,28.02
2023-03-10T01:31:18.181Z,25.83
2023-03-10T01:33:46.585Z,24.05
2023-03-10T01:36:21.906Z,26.23
2023-03-10T01:38:49.550Z,26.08
2023-03-10T01:41:18.010Z,25.88
2023-03-10T01:43:48.597Z,26.58
2023-03-10T01:46:42.981Z,25.00
2023-03-10T01:49:44.890Z,26.75
2023-03-10T01:52:20.896Z,28.48
2023-03-10T01:54:57.321Z,28.95
2023-03-10T01:59:56.875Z,21.25
2023-03-10T02:02:25.865Z,25.38
2023-03-10T02:04:54.645Z,24.77
2023-03-10T02:07:26.962Z,26.23
2023-03-10T02:09:56.209Z,25.67
2023-03-10T02:12:23.464Z,25.85
2023-03-10T02:14:52.937Z,26.55
2023-03-10T02:17:23.407Z,27.60
2023-03-10T02:20:12.110Z,28.67
2023-03-10T02:22:40.098Z,27.08
2023-03-10T02:25:22.527Z,28.60
2023-03-10T02:27:49.978Z,29.27
2023-03-10T02:30:25.019Z,24.48
2023-03-10T02:32:57.888Z,24.27
2023-03-10T02:35:25.271Z,26.15
2023-03-10T02:37:56.669Z,25.30
2023-03-10T02:40:38.000Z,24.45
2023-03-10T02:43:20.507Z,24.35
2023-03-10T02:45:52.201Z,24.92
2023-03-10T02:48:31.282Z,23.42
2023-03-10T02:51:02.372Z,24.88
2023-03-10T02:53:30.493Z,23.83
2023-03-10T02:55:58.523Z,22.77
2023-03-10T02:58:29.970Z,21.58
2023-03-10T03:00:57.815Z,23.70
2023-03-10T03:03:25.285Z,22.58
2023-03-10T03:05:53.018Z,21.02
2023-03-10T03:08:20.989Z,22.25
2023-03-10T03:10:48.188Z,22.83
2023-03-10T03:13:15.681Z,22.77
2023-03-10T03:15:42.963Z,20.83
2023-03-10T03:18:11.186Z,20.00
2023-03-10T03:20:41.023Z,22.40
2023-03-10T03:23:08.755Z,22.05
2023-03-10T03:25:39.103Z,19.15
2023-03-10T03:28:09.796Z,19.90
2023-03-10T03:30:38.086Z,19.85
2023-03-10T03:33:07.206Z,19.30
2023-03-10T03:35:37.365Z,17.95
2023-03-10T03:38:06.422Z,18.92
2023-03-10T03:40:36.385Z,19.67
2023-03-10T03:43:05.620Z,18.02
2023-03-10T03:45:34.268Z,17.55
2023-03-10T03:48:02.083Z,15.95
2023-03-10T03:50:31.895Z,16.88
2023-03-10T03:53:05.841Z,16.77
2023-03-10T03:55:33.969Z,17.02
2023-03-10T03:58:01.282Z,18.02
2023-03-10T04:00:28.387Z,18.42
2023-03-10T04:03:02.263Z,17.38
2023-03-10T04:05:30.839Z,19.83
2023-03-10T04:07:58.233Z,15.82
2023-03-10T04:10:28.549Z,17.75
2023-03-10T04:12:56.207Z,15.68
2023-03-10T04:15:24.776Z,13.55
2023-03-10T04:17:51.902Z,14.65
2023-03-10T04:20:19.086Z,15.95
2023-03-10T04:22:49.723Z,16.20
2023-03-10T04:25:18.595Z,17.60
2023-03-10T04:27:46.285Z,15.35
2023-03-10T04:30:15.039Z,16.27
2023-03-10T04:32:47.928Z,17.02
2023-03-10T04:35:16.841Z,14.73
2023-03-10T04:37:44.862Z,12.20
2023-03-10T04:40:15.029Z,14.45
2023-03-10T04:42:42.928Z,13.70
2023-03-10T04:45:11.596Z,14.05
2023-03-10T04:47:40.626Z,15.40
2023-03-10T04:50:08.457Z,15.77
2023-03-10T04:52:35.425Z,15.40
2023-03-10T04:55:02.603Z,16.00
2023-03-10T04:57:30.077Z,13.50
2023-03-10T04:59:57.245Z,18.02
2023-03-10T05:02:24.454Z,15.00
2023-03-10T05:04:52.081Z,13.48
2023-03-10T05:07:21.310Z,15.52
2023-03-10T05:09:49.923Z,14.98
2023-03-10T05:12:17.281Z,14.30
2023-03-10T05:14:44.431Z,13.23
2023-03-10T05:17:12.502Z,14.68
2023-03-10T05:19:39.830Z,13.75
2023-03-10T05:22:08.235Z,13.82
2023-03-10T05:24:37.092Z,15.30
2023-03-10T05:27:04.474Z,15.30
2023-03-10T05:29:32.372Z,14.45
2023-03-10T05:32:07.699Z,15.43
2023-03-10T05:34:38.592Z,13.60
2023-03-10T05:37:06.087Z,14.90
2023-03-10T05:39:33.699Z,14.70
2023-03-10T05:42:04.505Z,16.17
2023-03-10T05:44:34.152Z,16.63
2023-03-10T05:47:02.856Z,17.13
2023-03-10T05:49:30.803Z,14.43
2023-03-10T05:51:59.117Z,14.15
2023-03-10T05:54:26.445Z,14.20
2023-03-10T05:56:53.481Z,13.15
2023-03-10T05:59:23.175Z,12.45
2023-03-10T06:01:52.037Z,12.90
2023-03-10T06:04:19.164Z,16.10
2023-03-10T06:06:48.803Z,13.68
2023-03-10T06:09:15.853Z,12.40
2023-03-10T06:11:42.891Z,13.57
2023-03-10T06:14:10.145Z,11.93
2023-03-10T06:16:37.325Z,12.23
2023-03-10T06:19:04.427Z,11.85
2023-03-10T06:21:31.531Z,13.20
2023-03-10T06:23:59.279Z,13.48
2023-03-10T06:26:26.540Z,13.88
2023-03-10T06:28:53.344Z,13.77
2023-03-10T06:31:24.418Z,11.98
2023-03-10T06:33:52.603Z,12.13
2023-03-10T06:36:20.794Z,13.55
2023-03-10T06:38:48.466Z,12.35
2023-03-10T06:41:16.612Z,12.43
2023-03-10T06:43:43.549Z,14.30
2023-03-10T06:46:11.933Z,14.93
2023-03-10T06:48:40.907Z,14.00
2023-03-10T06:51:11.585Z,12.55
2023-03-10T06:53:38.786Z,15.73
2023-03-10T06:56:28.423Z,14.60
2023-03-10T06:58:55.947Z,14.15
2023-03-10T07:01:26.365Z,12.80
2023-03-10T07:03:54.929Z,14.70
2023-03-10T07:06:23.480Z,15.15
2023-03-10T07:08:51.265Z,14.63
2023-03-10T07:11:19.016Z,16.15
2023-03-10T07:13:46.139Z,16.10
2023-03-10T07:16:14.199Z,14.20
2023-03-10T07:18:41.835Z,14.00
2023-03-10T07:21:17.905Z,11.98
2023-03-10T07:23:46.444Z,13.52
2023-03-10T07:26:16.081Z,11.90
2023-03-10T07:28:43.082Z,13.07
2023-03-10T07:31:14.142Z,13.05
2023-03-10T07:33:41.139Z,13.05
2023-03-10T07:36:15.413Z,12.82
2023-03-10T07:38:42.341Z,12.07
2023-03-10T07:41:13.566Z,12.52
2023-03-10T07:43:40.599Z,13.27
2023-03-10T07:46:11.267Z,16.02
2023-03-10T07:48:39.614Z,12.88
2023-03-10T07:51:07.573Z,13.23
2023-03-10T07:53:34.844Z,12.43
2023-03-10T07:56:11.395Z,10.90
2023-03-10T07:58:39.686Z,10.23
2023-03-10T08:01:18.083Z,11.77
2023-03-10T08:03:47.789Z,11.80
2023-03-10T08:06:35.882Z,12.02
2023-03-10T08:09:04.074Z,9.60
2023-03-10T08:11:31.750Z,12.27
2023-03-10T08:13:59.288Z,13.73
2023-03-10T08:16:26.825Z,11.90
2023-03-10T08:18:54.879Z,11.45
2023-03-10T08:21:22.357Z,10.50
2023-03-10T08:23:51.036Z,9.48
2023-03-10T08:26:19.908Z,12.48
2023-03-10T08:28:48.248Z,10.75
2023-03-10T08:31:20.988Z,11.35
2023-03-10T08:33:49.560Z,12.35
2023-03-10T08:36:20.596Z,10.93
2023-03-10T08:38:50.077Z,13.60
2023-03-10T08:41:25.932Z,12.57
2023-03-10T08:43:55.390Z,11.85
2023-03-10T08:46:25.060Z,13.10
2023-03-10T08:48:52.221Z,12.40
2023-03-10T08:51:20.138Z,11.63
2023-03-10T08:53:49.890Z,14.82
2023-03-10T08:56:21.311Z,16.60
2023-03-10T08:58:49.732Z,13.50
2023-03-10T09:01:18.185Z,12.55
2023-03-10T09:03:46.297Z,13.27
2023-03-10T09:06:14.735Z,11.38
2023-03-10T09:08:42.657Z,12.20
2023-03-10T09:11:16.355Z,12.40
2023-03-10T09:13:44.008Z,14.02
2023-03-10T09:16:13.473Z,12.77
2023-03-10T09:18:41.392Z,13.90
2023-03-10T09:21:11.287Z,13.05
2023-03-10T09:23:41.367Z,13.20
2023-03-10T09:26:08.917Z,12.38
2023-03-10T09:28:36.641Z,11.75
2023-03-10T09:31:06.069Z,14.35
2023-03-10T09:33:34.093Z,13.38
2023-03-10T09:36:06.920Z,11.15
2023-03-10T09:38:36.096Z,15.98
2023-03-10T09:41:22.738Z,11.52
2023-03-10T09:44:02.956Z,10.20
2023-03-10T09:47:05.691Z,14.88
2023-03-10T09:49:40.251Z,11.07
2023-03-10T09:52:42.013Z,11.95
2023-03-10T09:55:28.697Z,11.05
2023-03-10T09:57:57.456Z,16.20
2023-03-10T10:00:33.544Z,12.90
2023-03-10T10:03:23.553Z,13.50
2023-03-10T10:05:53.453Z,12.75
2023-03-10T10:08:29.296Z,11.77
2023-03-10T10:10:59.594Z,12.18
2023-03-10T10:13:30.466Z,12.40
2023-03-10T10:16:33.608Z,12.38
2023-03-10T10:19:21.494Z,12.60
2023-03-10T10:24:21.076Z,9.95
2023-03-10T10:26:48.238Z,14.52
2023-03-10T10:29:29.689Z,13.68
2023-03-10T10:32:06.955Z,13.18
2023-03-10T10:34:34.683Z,12.60
2023-03-10T10:37:01.900Z,13.20
2023-03-10T10:39:43.115Z,11.82
2023-03-10T10:42:24.200Z,14.55
2023-03-10T10:45:04.620Z,13.77
2023-03-10T10:47:47.348Z,19.35
2023-03-10T10:50:18.691Z,14.32
2023-03-10T10:52:51.623Z,14.75
2023-03-10T10:55:29.686Z,16.25
2023-03-10T10:58:01.812Z,19.15
2023-03-10T11:00:30.793Z,15.38
2023-03-10T11:02:58.094Z,16.85
2023-03-10T11:05:35.821Z,12.85
2023-03-10T11:08:18.908Z,12.15
2023-03-10T11:11:02.124Z,12.82
2023-03-10T11:16:53.222Z,11.95
2023-03-10T11:19:32.062Z,12.52
2023-03-10T11:22:33.962Z,15.52
2023-03-10T11:25:21.838Z,14.52
2023-03-10T11:28:01.969Z,11.85
2023-03-10T11:30:38.198Z,13.70
2023-03-10T11:33:16.995Z,14.20
2023-03-10T11:35:54.616Z,16.85
2023-03-10T11:38:37.673Z,13.43
2023-03-10T11:41:24.613Z,10.80
2023-03-10T11:44:31.824Z,14.63
2023-03-10T11:47:06.812Z,12.87
2023-03-10T11:49:41.660Z,12.40
2023-03-10T11:52:19.364Z,11.57
2023-03-10T11:55:07.327Z,14.93
2023-03-10T11:57:45.782Z,11.82
2023-03-10T12:00:26.029Z,11.57
2023-03-10T12:03:36.174Z,12.98
2023-03-10T12:06:04.964Z,11.07
2023-03-10T12:08:35.078Z,13.73
2023-03-10T12:11:06.619Z,11.40
2023-03-10T12:13:48.196Z,10.80
2023-03-10T12:16:20.926Z,10.63
2023-03-10T12:18:48.187Z,10.13
2023-03-10T12:21:20.908Z,10.23
2023-03-10T12:23:53.817Z,9.18
2023-03-10T12:26:39.230Z,10.55
2023-03-10T12:29:24.544Z,10.50
2023-03-10T12:31:53.934Z,9.15
2023-03-10T12:34:31.517Z,11.07
2023-03-10T12:37:11.308Z,9.90
2023-03-10T12:39:45.949Z,10.77
2023-03-10T12:42:33.069Z,10.50
2023-03-10T12:48:19.702Z,9.15
2023-03-10T12:50:56.108Z,7.43
2023-03-10T12:53:38.722Z,7.47
2023-03-10T12:56:16.608Z,7.63
2023-03-10T12:59:05.272Z,5.43
2023-03-10T13:01:43.246Z,4.13
2023-03-10T13:04:20.322Z,4.55
2023-03-10T13:06:49.036Z,5.05
2023-03-10T13:09:26.435Z,6.18
2023-03-10T13:12:07.740Z,7.25
2023-03-10T13:14:39.396Z,5.88
2023-03-10T13:17:30.536Z,9.95
2023-03-10T13:20:11.713Z,5.72
2023-03-10T13:22:39.197Z,5.03
2023-03-10T13:25:12.474Z,6.75
2023-03-10T13:27:39.590Z,6.68
2023-03-10T13:30:26.682Z,5.72
2023-03-10T13:35:36.684Z,5.28
2023-03-10T13:38:16.617Z,4.00
2023-03-10T13:40:48.660Z,4.25
2023-03-10T13:43:41.774Z,5.07
2023-03-10T13:46:19.110Z,2.97
2023-03-10T13:48:49.928Z,3.42
2023-03-10T13:51:32.251Z,4.05
2023-03-10T13:54:32.624Z,4.03
2023-03-10T13:57:25.421Z,3.90
2023-03-10T13:59:55.005Z,4.10
2023-03-10T14:02:35.953Z,4.85
2023-03-10T14:05:06.768Z,4.43
2023-03-10T14:07:37.467Z,3.65
2023-03-10T14:10:04.410Z,4.45
2023-03-10T14:12:37.554Z,5.95
2023-03-10T14:15:19.374Z,3.88
2023-03-10T14:17:50.264Z,4.68
2023-03-10T14:20:45.209Z,5.00
2023-03-10T14:23:26.242Z,4.55
2023-03-10T14:25:56.340Z,5.35
2023-03-10T14:28:30.659Z,5.43
2023-03-10T14:31:02.569Z,4.35
2023-03-10T14:33:29.609Z,8.35
2023-03-10T14:35:57.295Z,19.23
2023-03-10T14:38:24.364Z,9.15
2023-03-10T14:40:53.702Z,5.18
2023-03-10T14:43:26.755Z,6.32
2023-03-10T14:45:57.646Z,5.90
2023-03-10T14:48:27.907Z,6.93
2023-03-10T14:50:56.908Z,7.03
2023-03-10T14:53:27.041Z,4.50
2023-03-10T14:55:56.468Z,5.20
2023-03-10T14:58:28.992Z,5.35
2023-03-10T15:00:56.105Z,5.65
2023-03-10T15:03:22.991Z,5.43
2023-03-10T15:05:49.915Z,5.63
2023-03-10T15:08:17.882Z,8.27
2023-03-10T15:10:49.699Z,7.20
2023-03-10T15:13:22.948Z,6.57
2023-03-10T15:15:50.653Z,8.13
2023-03-10T15:18:21.763Z,5.97
2023-03-10T15:20:49.454Z,6.10
2023-03-10T15:23:20.077Z,5.65
2023-03-10T15:25:47.979Z,6.25
2023-03-10T15:28:15.263Z,6.75
2023-03-10T15:30:42.402Z,5.88
2023-03-10T15:33:10.761Z,6.38
2023-03-10T15:35:39.064Z,6.47
2023-03-10T15:38:06.148Z,5.53
2023-03-10T15:40:34.848Z,9.00
2023-03-10T15:43:01.928Z,6.53
2023-03-10T15:45:30.851Z,7.90
2023-03-10T15:47:58.497Z,7.43
2023-03-10T15:50:26.195Z,7.47
2023-03-10T15:52:56.342Z,11.52
2023-03-10T15:55:25.009Z,7.75
2023-03-10T15:57:52.936Z,11.25
2023-03-10T16:00:23.116Z,11.85
2023-03-10T16:02:51.223Z,11.48
2023-03-10T16:05:19.496Z,11.48
2023-03-10T16:07:46.643Z,9.75
2023-03-10T16:10:17.717Z,15.32
2023-03-10T16:12:44.798Z,17.25
2023-03-10T16:15:13.703Z,16.48
2023-03-10T16:17:41.906Z,15.48
2023-03-10T16:20:12.649Z,18.02
2023-03-10T16:22:42.741Z,13.48
2023-03-10T16:25:18.193Z,12.48
2023-03-10T16:27:46.053Z,11.07
2023-03-10T16:30:18.483Z,10.27
2023-03-10T16:32:47.819Z,10.57
2023-03-10T16:35:16.188Z,10.32
2023-03-10T16:37:43.641Z,12.63
2023-03-10T16:40:11.641Z,11.90
2023-03-10T16:42:38.897Z,11.95
2023-03-10T16:45:07.359Z,12.90
2023-03-10T16:47:34.348Z,11.93
2023-03-10T16:50:01.437Z,12.63
2023-03-10T16:52:28.362Z,14.43
2023-03-10T16:55:01.722Z,12.15
2023-03-10T16:57:28.672Z,16.27
2023-03-10T16:59:55.659Z,14.90
2023-03-10T17:02:22.547Z,14.25
2023-03-10T17:04:49.645Z,15.43
2023-03-10T17:07:16.873Z,17.08
2023-03-10T17:09:45.620Z,19.13
2023-03-10T17:12:12.683Z,16.65
2023-03-10T17:14:39.844Z,16.48
2023-03-10T17:17:08.101Z,20.52
2023-03-10T17:19:35.454Z,19.10
2023-03-10T17:22:02.663Z,18.50
2023-03-10T17:24:29.614Z,20.23
2023-03-10T17:26:56.581Z,18.90
2023-03-10T17:29:23.525Z,17.38
2023-03-10T17:31:51.745Z,18.60
2023-03-10T17:34:19.686Z,19.67
2023-03-10T17:36:50.675Z,16.20
2023-03-10T17:39:21.456Z,20.23
2023-03-10T17:41:49.155Z,18.45
2023-03-10T17:44:16.855Z,22.48
2023-03-10T17:46:45.367Z,19.52
2023-03-10T17:49:14.526Z,21.10
2023-03-10T17:51:44.164Z,18.23
2023-03-10T17:54:20.166Z,17.15
2023-03-10T17:56:47.702Z,26.00
2023-03-10T17:59:16.128Z,23.15
2023-03-10T18:01:44.639Z,20.23
2023-03-10T18:04:12.206Z,24.55
2023-03-10T18:06:39.378Z,21.40
2023-03-10T18:09:12.355Z,21.63
2023-03-10T18:11:39.710Z,23.08
2023-03-10T18:14:07.150Z,23.42
2023-03-10T18:16:39.026Z,27.67
2023-03-10T18:19:10.478Z,25.13
2023-03-10T18:21:38.164Z,20.73
2023-03-10T18:24:06.471Z,25.23
2023-03-10T18:26:33.787Z,22.60
2023-03-10T18:29:01.121Z,23.90
2023-03-10T18:31:31.925Z,24.75
2023-03-10T18:33:59.764Z,21.90
2023-03-10T18:36:27.477Z,22.90
2023-03-10T18:38:54.989Z,26.90
2023-03-10T18:41:29.545Z,21.65
2023-03-10T18:43:57.210Z,21.80
2023-03-10T18:46:24.338Z,21.23
2023-03-10T18:48:55.899Z,21.10
2023-03-10T18:51:25.493Z,18.77
2023-03-10T18:53:52.601Z,26.95
2023-03-10T18:56:19.730Z,22.23
2023-03-10T18:58:46.786Z,21.38
2023-03-10T19:01:14.953Z,21.15
2023-03-10T19:03:42.416Z,18.67
2023-03-10T19:06:09.658Z,25.35
2023-03-10T19:08:38.938Z,19.42
2023-03-10T19:11:07.036Z,15.93
2023-03-10T19:13:34.541Z,14.75
2023-03-10T19:16:08.457Z,19.38
2023-03-10T19:18:35.905Z,16.77
2023-03-10T19:21:03.621Z,14.70
2023-03-10T19:23:30.856Z,19.90
2023-03-10T19:25:58.131Z,20.67
2023-03-10T19:28:25.174Z,19.13
2023-03-10T19:30:52.186Z,16.05
2023-03-10T19:33:19.331Z,14.23
2023-03-10T19:35:46.289Z,15.52
2023-03-10T19:38:13.372Z,14.48
2023-03-10T19:40:40.347Z,13.13
2023-03-10T19:43:07.349Z,11.65
2023-03-10T19:45:34.338Z,11.77
2023-03-10T19:48:01.355Z,11.00
2023-03-10T19:50:28.524Z,10.65
2023-03-10T19:52:55.535Z,12.40
2023-03-10T19:55:25.125Z,11.85
2023-03-10T19:57:55.782Z,11.73
2023-03-10T20:00:31.208Z,11.07
2023-03-10T20:02:58.595Z,12.30
2023-03-10T20:05:26.754Z,23.70
2023-03-10T20:07:54.196Z,15.32
2023-03-10T20:10:21.242Z,11.95
2023-03-10T20:12:48.361Z,14.10
2023-03-10T20:15:17.072Z,12.60
2023-03-10T20:17:44.193Z,14.60
2023-03-10T20:20:13.382Z,12.32
2023-03-10T20:22:43.589Z,14.52
2023-03-10T20:25:14.252Z,13.05
2023-03-10T20:27:41.582Z,13.82
2023-03-10T20:30:14.356Z,14.05
2023-03-10T20:32:41.632Z,14.88
2023-03-10T20:35:09.100Z,14.25
2023-03-10T20:37:38.454Z,22.23
2023-03-10T20:40:07.593Z,19.38
2023-03-10T20:42:34.611Z,15.23
2023-03-10T20:45:02.698Z,18.23
2023-03-10T20:47:30.048Z,16.30
2023-03-10T20:49:57.392Z,16.75
2023-03-10T20:52:24.723Z,21.67
2023-03-10T20:54:55.031Z,21.45
2023-03-10T20:57:22.385Z,17.73
2023-03-10T20:59:49.484Z,18.88
2023-03-10T21:02:17.742Z,19.48
2023-03-10T21:04:47.107Z,19.48
2023-03-10T21:07:14.375Z,22.88
2023-03-10T21:09:42.102Z,19.67
2023-03-10T21:12:09.044Z,20.73
2023-03-10T21:14:35.916Z,18.67
2023-03-10T21:17:03.287Z,18.08
2023-03-10T21:19:55.517Z,21.70
2023-03-10T21:22:22.693Z,21.73
2023-03-10T21:24:49.741Z,19.60
2023-03-10T21:27:17.253Z,19.90
2023-03-10T21:29:44.274Z,19.17
2023-03-10T21:32:11.224Z,21.00
2023-03-10T21:34:38.968Z,21.00
2023-03-10T21:37:08.641Z,21.25
2023-03-10T21:39:35.551Z,20.52
2023-03-10T21:42:02.491Z,20.83
2023-03-10T21:44:30.318Z,21.75
2023-03-10T21:46:57.421Z,21.85
2023-03-10T21:49:24.501Z,22.08
2023-03-10T21:51:51.575Z,21.10
2023-03-10T21:54:18.775Z,22.50
2023-03-10T21:56:45.938Z,20.88
2023-03-10T21:59:13.117Z,22.73
2023-03-10T22:01:40.317Z,20.45
2023-03-10T22:04:07.327Z,18.67
2023-03-10T22:06:34.584Z,18.08
2023-03-10T22:09:01.520Z,19.38
2023-03-10T22:14:10.836Z,27.15
2023-03-10T22:16:38.018Z,22.55
2023-03-10T22:19:05.129Z,21.02
2023-03-10T22:21:31.998Z,20.23
2023-03-10T22:23:59.940Z,20.58
2023-03-10T22:26:26.922Z,18.58
2023-03-10T22:28:54.368Z,20.13
2023-03-10T22:31:22.221Z,18.02
2023-03-10T22:33:49.310Z,22.02
2023-03-10T22:36:16.264Z,19.70
2023-03-10T22:38:43.270Z,18.20
2023-03-10T22:41:12.298Z,19.88
2023-03-10T22:43:39.479Z,17.75
2023-03-10T22:46:17.127Z,18.88
2023-03-10T22:48:44.570Z,17.85
2023-03-10T22:51:17.045Z,21.05
2023-03-10T22:53:46.768Z,18.92
2023-03-10T22:56:13.932Z,17.50
2023-03-10T22:58:41.052Z,17.98
2023-03-10T23:01:08.244Z,16.80
2023-03-10T23:03:36.300Z,15.60
2023-03-10T23:06:05.902Z,15.10
2023-03-10T23:08:33.588Z,14.15
2023-03-10T23:11:00.546Z,14.52
2023-03-10T23:13:27.509Z,17.13
2023-03-10T23:15:54.613Z,17.90
2023-03-10T23:18:21.757Z,16.13
2023-03-10T23:20:49.181Z,15.15
2023-03-10T23:23:18.346Z,15.00
2023-03-10T23:25:48.746Z,14.55
2023-03-10T23:28:16.274Z,17.95
2023-03-10T23:30:45.746Z,17.33
2023-03-10T23:33:18.455Z,15.88
2023-03-10T23:35:54.922Z,17.85
2023-03-10T23:38:24.969Z,18.85
2023-03-10T23:40:53.956Z,15.93
2023-03-10T23:43:21.578Z,17.77
2023-03-10T23:45:49.278Z,17.17
2023-03-10T23:48:17.926Z,16.23
2023-03-10T23:50:47.646Z,16.92
2023-03-10T23:53:17.279Z,16.38
2023-03-10T23:55:47.111Z,17.88
2023-03-10T23:58:16.706Z,15.40
